sensor_id;sensor_type;location;lat;lon;timestamp;P1;durP1;ratioP1;P2;durP2;ratioP2
73859;SDS011;62197;51.632;13.700;2022-10-23T00:00:31;13.70;;;7.85;;
73859;SDS011;62197;51.632;13.700;2022-10-23T00:05:23;15.32;;;8.20;;
73859;SDS011;62197;51.632;13.700;2022-10-23T00:07:50;8.20;;;6.07;;
73859;SDS011;62197;51.632;13.700;2022-10-23T00:10:19;11.82;;;7.47;;
73859;SDS011;62197;51.632;13.700;2022-10-23T00:15:11;11.63;;;6.53;;
73859;SDS011;62197;51.632;13.700;2022-10-23T00:17:37;11.15;;;7.00;;
73859;SDS011;62197;51.632;13.700;2022-10-23T00:20:03;12.70;;;7.28;;
73859;SDS011;62197;51.632;13.700;2022-10-23T00:22:29;12.60;;;7.85;;
73859;SDS011;62197;51.632;13.700;2022-10-23T00:24:55;11.07;;;7.93;;
73859;SDS011;62197;51.632;13.700;2022-10-23T00:29:45;11.37;;;7.00;;
73859;SDS011;62197;51.632;13.700;2022-10-23T00:34:36;9.27;;;6.10;;
73859;SDS011;62197;51.632;13.700;2022-10-23T00:39:26;9.90;;;5.93;;
73859;SDS011;62197;51.632;13.700;2022-10-23T00:46:42;15.70;;;6.10;;
73859;SDS011;62197;51.632;13.700;2022-10-23T00:49:09;9.48;;;6.15;;
73859;SDS011;62197;51.632;13.700;2022-10-23T00:51:39;10.25;;;6.43;;
73859;SDS011;62197;51.632;13.700;2022-10-23T00:54:09;11.65;;;5.95;;
73859;SDS011;62197;51.632;13.700;2022-10-23T00:56:37;12.93;;;6.63;;
73859;SDS011;62197;51.632;13.700;2022-10-23T00:59:05;10.45;;;6.50;;
73859;SDS011;62197;51.632;13.700;2022-10-23T01:01:30;9.52;;;6.45;;
73859;SDS011;62197;51.632;13.700;2022-10-23T01:03:56;10.13;;;6.30;;
73859;SDS011;62197;51.632;13.700;2022-10-23T01:09:17;11.43;;;5.85;;
73859;SDS011;62197;51.632;13.700;2022-10-23T01:11:59;16.08;;;8.13;;
73859;SDS011;62197;51.632;13.700;2022-10-23T01:17:24;13.00;;;7.20;;
73859;SDS011;62197;51.632;13.700;2022-10-23T01:20:23;10.85;;;7.25;;
73859;SDS011;62197;51.632;13.700;2022-10-23T01:28:24;10.38;;;6.22;;
73859;SDS011;62197;51.632;13.700;2022-10-23T01:30:54;11.90;;;6.18;;
73859;SDS011;62197;51.632;13.700;2022-10-23T01:33:26;10.93;;;6.43;;
73859;SDS011;62197;51.632;13.700;2022-10-23T01:35:59;11.48;;;6.30;;
73859;SDS011;62197;51.632;13.700;2022-10-23T01:38:38;10.93;;;6.15;;
73859;SDS011;62197;51.632;13.700;2022-10-23T01:42:10;17.75;;;7.55;;
73859;SDS011;62197;51.632;13.700;2022-10-23T01:44:31;9.25;;;5.53;;
73859;SDS011;62197;51.632;13.700;2022-10-23T01:47:03;11.68;;;6.78;;
73859;SDS011;62197;51.632;13.700;2022-10-23T01:49:31;10.48;;;6.35;;
73859;SDS011;62197;51.632;13.700;2022-10-23T01:51:58;11.65;;;6.72;;
73859;SDS011;62197;51.632;13.700;2022-10-23T01:54:30;9.25;;;6.38;;
73859;SDS011;62197;51.632;13.700;2022-10-23T01:56:58;8.98;;;5.72;;
73859;SDS011;62197;51.632;13.700;2022-10-23T01:59:26;7.63;;;4.85;;
73859;SDS011;62197;51.632;13.700;2022-10-23T02:01:56;8.35;;;6.03;;
73859;SDS011;62197;51.632;13.700;2022-10-23T02:04:25;8.63;;;4.97;;
73859;SDS011;62197;51.632;13.700;2022-10-23T02:06:55;9.63;;;6.05;;
73859;SDS011;62197;51.632;13.700;2022-10-23T02:09:20;9.80;;;5.35;;
73859;SDS011;62197;51.632;13.700;2022-10-23T02:16:59;7.50;;;5.53;;
73859;SDS011;62197;51.632;13.700;2022-10-23T02:19:38;10.00;;;6.25;;
73859;SDS011;62197;51.632;13.700;2022-10-23T02:22:35;8.65;;;5.03;;
73859;SDS011;62197;51.632;13.700;2022-10-23T02:25:10;8.55;;;5.95;;
73859;SDS011;62197;51.632;13.700;2022-10-23T02:30:26;10.25;;;5.00;;
73859;SDS011;62197;51.632;13.700;2022-10-23T02:32:54;9.85;;;6.82;;
73859;SDS011;62197;51.632;13.700;2022-10-23T02:35:22;11.07;;;5.65;;
73859;SDS011;62197;51.632;13.700;2022-10-23T02:37:52;8.65;;;5.35;;
73859;SDS011;62197;51.632;13.700;2022-10-23T02:40:21;10.05;;;5.78;;
73859;SDS011;62197;51.632;13.700;2022-10-23T02:45:23;12.27;;;5.80;;
73859;SDS011;62197;51.632;13.700;2022-10-23T02:48:12;7.75;;;5.38;;
73859;SDS011;62197;51.632;13.700;2022-10-23T02:50:48;8.25;;;5.10;;
73859;SDS011;62197;51.632;13.700;2022-10-23T02:53:29;9.50;;;5.47;;
73859;SDS011;62197;51.632;13.700;2022-10-23T03:02:02;7.93;;;5.53;;
73859;SDS011;62197;51.632;13.700;2022-10-23T03:04:33;7.88;;;5.30;;
73859;SDS011;62197;51.632;13.700;2022-10-23T03:07:00;8.75;;;5.93;;
73859;SDS011;62197;51.632;13.700;2022-10-23T03:11:51;9.37;;;5.47;;
73859;SDS011;62197;51.632;13.700;2022-10-23T03:16:41;12.87;;;5.87;;
73859;SDS011;62197;51.632;13.700;2022-10-23T03:21:32;13.60;;;6.53;;
73859;SDS011;62197;51.632;13.700;2022-10-23T03:23:57;10.52;;;6.20;;
73859;SDS011;62197;51.632;13.700;2022-10-23T03:28:48;10.13;;;5.40;;
73859;SDS011;62197;51.632;13.700;2022-10-23T03:33:38;9.03;;;6.17;;
73859;SDS011;62197;51.632;13.700;2022-10-23T03:38:29;10.68;;;5.55;;
73859;SDS011;62197;51.632;13.700;2022-10-23T03:43:20;10.75;;;5.75;;
73859;SDS011;62197;51.632;13.700;2022-10-23T03:48:11;12.87;;;6.60;;
73859;SDS011;62197;51.632;13.700;2022-10-23T03:53:01;11.17;;;6.20;;
73859;SDS011;62197;51.632;13.700;2022-10-23T03:57:52;12.30;;;6.07;;
73859;SDS011;62197;51.632;13.700;2022-10-23T04:00:19;13.85;;;6.57;;
73859;SDS011;62197;51.632;13.700;2022-10-23T04:05:10;11.40;;;5.97;;
73859;SDS011;62197;51.632;13.700;2022-10-23T04:10:00;16.60;;;8.15;;
73859;SDS011;62197;51.632;13.700;2022-10-23T04:12:26;16.02;;;7.55;;
73859;SDS011;62197;51.632;13.700;2022-10-23T04:14:51;17.35;;;7.78;;
73859;SDS011;62197;51.632;13.700;2022-10-23T04:17:16;14.05;;;8.27;;
73859;SDS011;62197;51.632;13.700;2022-10-23T04:19:42;16.08;;;8.23;;
73859;SDS011;62197;51.632;13.700;2022-10-23T04:22:07;12.15;;;7.30;;
73859;SDS011;62197;51.632;13.700;2022-10-23T04:24:32;13.30;;;8.35;;
73859;SDS011;62197;51.632;13.700;2022-10-23T04:26:58;12.48;;;7.53;;
73859;SDS011;62197;51.632;13.700;2022-10-23T04:31:49;13.50;;;7.07;;
73859;SDS011;62197;51.632;13.700;2022-10-23T04:34:15;15.48;;;7.45;;
73859;SDS011;62197;51.632;13.700;2022-10-23T04:39:06;12.70;;;7.85;;
73859;SDS011;62197;51.632;13.700;2022-10-23T04:43:56;12.75;;;8.05;;
73859;SDS011;62197;51.632;13.700;2022-10-23T04:48:47;13.27;;;6.93;;
73859;SDS011;62197;51.632;13.700;2022-10-23T04:53:37;10.90;;;6.47;;
73859;SDS011;62197;51.632;13.700;2022-10-23T04:56:03;15.13;;;7.53;;
73859;SDS011;62197;51.632;13.700;2022-10-23T05:00:54;12.67;;;7.20;;
73859;SDS011;62197;51.632;13.700;2022-10-23T05:05:46;12.93;;;6.95;;
73859;SDS011;62197;51.632;13.700;2022-10-23T05:10:37;13.40;;;7.47;;
73859;SDS011;62197;51.632;13.700;2022-10-23T05:13:03;13.65;;;7.28;;
73859;SDS011;62197;51.632;13.700;2022-10-23T05:18:10;11.00;;;7.18;;
73859;SDS011;62197;51.632;13.700;2022-10-23T05:20:40;14.65;;;8.98;;
73859;SDS011;62197;51.632;13.700;2022-10-23T05:23:09;16.00;;;7.18;;
73859;SDS011;62197;51.632;13.700;2022-10-23T05:25:36;15.57;;;8.02;;
73859;SDS011;62197;51.632;13.700;2022-10-23T05:30:27;12.70;;;7.90;;
73859;SDS011;62197;51.632;13.700;2022-10-23T05:35:19;16.70;;;8.05;;
73859;SDS011;62197;51.632;13.700;2022-10-23T05:37:47;17.58;;;7.60;;
73859;SDS011;62197;51.632;13.700;2022-10-23T05:40:14;14.90;;;7.82;;
73859;SDS011;62197;51.632;13.700;2022-10-23T05:42:40;11.98;;;7.40;;
73859;SDS011;62197;51.632;13.700;2022-10-23T05:47:31;20.23;;;7.00;;
73859;SDS011;62197;51.632;13.700;2022-10-23T05:52:22;17.57;;;8.50;;
73859;SDS011;62197;51.632;13.700;2022-10-23T05:57:14;27.55;;;11.48;;
73859;SDS011;62197;51.632;13.700;2022-10-23T06:02:05;24.27;;;10.77;;
73859;SDS011;62197;51.632;13.700;2022-10-23T06:06:57;20.48;;;10.65;;
73859;SDS011;62197;51.632;13.700;2022-10-23T06:11:48;17.83;;;9.40;;
73859;SDS011;62197;51.632;13.700;2022-10-23T06:16:38;14.03;;;6.93;;
73859;SDS011;62197;51.632;13.700;2022-10-23T06:21:29;15.33;;;7.07;;
73859;SDS011;62197;51.632;13.700;2022-10-23T06:26:19;12.83;;;7.10;;
73859;SDS011;62197;51.632;13.700;2022-10-23T06:31:11;13.77;;;7.20;;
73859;SDS011;62197;51.632;13.700;2022-10-23T06:33:37;14.98;;;7.30;;
73859;SDS011;62197;51.632;13.700;2022-10-23T06:38:29;13.02;;;7.78;;
73859;SDS011;62197;51.632;13.700;2022-10-23T06:41:00;13.68;;;8.27;;
73859;SDS011;62197;51.632;13.700;2022-10-23T06:45:51;17.73;;;8.57;;
73859;SDS011;62197;51.632;13.700;2022-10-23T06:50:42;13.77;;;8.20;;
73859;SDS011;62197;51.632;13.700;2022-10-23T06:55:33;11.77;;;8.02;;
73859;SDS011;62197;51.632;13.700;2022-10-23T07:00:24;14.60;;;8.43;;
73859;SDS011;62197;51.632;13.700;2022-10-23T07:02:50;13.25;;;7.32;;
73859;SDS011;62197;51.632;13.700;2022-10-23T07:05:16;15.27;;;8.57;;
73859;SDS011;62197;51.632;13.700;2022-10-23T07:07:42;15.93;;;9.05;;
73859;SDS011;62197;51.632;13.700;2022-10-23T07:12:32;12.87;;;8.10;;
73859;SDS011;62197;51.632;13.700;2022-10-23T07:17:23;12.33;;;7.77;;
73859;SDS011;62197;51.632;13.700;2022-10-23T07:22:13;9.87;;;5.57;;
73859;SDS011;62197;51.632;13.700;2022-10-23T07:27:04;15.73;;;8.02;;
73859;SDS011;62197;51.632;13.700;2022-10-23T07:31:55;11.43;;;5.93;;
73859;SDS011;62197;51.632;13.700;2022-10-23T07:34:21;11.70;;;5.38;;
73859;SDS011;62197;51.632;13.700;2022-10-23T07:36:47;13.70;;;5.22;;
73859;SDS011;62197;51.632;13.700;2022-10-23T07:39:12;11.18;;;4.65;;
73859;SDS011;62197;51.632;13.700;2022-10-23T07:44:03;7.00;;;4.07;;
73859;SDS011;62197;51.632;13.700;2022-10-23T07:48:54;14.77;;;6.70;;
73859;SDS011;62197;51.632;13.700;2022-10-23T07:51:19;9.15;;;4.03;;
73859;SDS011;62197;51.632;13.700;2022-10-23T07:53:44;6.32;;;3.60;;
73859;SDS011;62197;51.632;13.700;2022-10-23T07:56:14;9.38;;;4.50;;
73859;SDS011;62197;51.632;13.700;2022-10-23T07:58:42;7.75;;;3.92;;
73859;SDS011;62197;51.632;13.700;2022-10-23T08:01:12;4.20;;;2.92;;
73859;SDS011;62197;51.632;13.700;2022-10-23T08:03:43;7.03;;;3.40;;
73859;SDS011;62197;51.632;13.700;2022-10-23T08:06:09;7.32;;;3.67;;
73859;SDS011;62197;51.632;13.700;2022-10-23T08:08:34;5.38;;;3.08;;
73859;SDS011;62197;51.632;13.700;2022-10-23T08:11:00;7.32;;;3.03;;
73859;SDS011;62197;51.632;13.700;2022-10-23T08:13:25;4.43;;;2.33;;
73859;SDS011;62197;51.632;13.700;2022-10-23T08:15:50;5.53;;;2.53;;
73859;SDS011;62197;51.632;13.700;2022-10-23T08:18:16;4.22;;;2.65;;
73859;SDS011;62197;51.632;13.700;2022-10-23T08:20:43;5.43;;;2.47;;
73859;SDS011;62197;51.632;13.700;2022-10-23T08:23:10;5.63;;;3.30;;
73859;SDS011;62197;51.632;13.700;2022-10-23T08:25:40;5.10;;;2.60;;
73859;SDS011;62197;51.632;13.700;2022-10-23T08:28:06;6.18;;;2.45;;
73859;SDS011;62197;51.632;13.700;2022-10-23T08:30:32;7.45;;;3.45;;
73859;SDS011;62197;51.632;13.700;2022-10-23T08:32:58;8.02;;;2.58;;
73859;SDS011;62197;51.632;13.700;2022-10-23T08:35:23;4.95;;;2.20;;
73859;SDS011;62197;51.632;13.700;2022-10-23T08:37:49;7.78;;;2.53;;
73859;SDS011;62197;51.632;13.700;2022-10-23T08:40:15;4.13;;;2.15;;
73859;SDS011;62197;51.632;13.700;2022-10-23T08:42:45;6.15;;;2.22;;
73859;SDS011;62197;51.632;13.700;2022-10-23T08:45:27;4.78;;;2.25;;
73859;SDS011;62197;51.632;13.700;2022-10-23T08:50:41;6.22;;;1.98;;
73859;SDS011;62197;51.632;13.700;2022-10-23T08:56:08;3.95;;;2.08;;
73859;SDS011;62197;51.632;13.700;2022-10-23T08:58:46;2.40;;;1.55;;
73859;SDS011;62197;51.632;13.700;2022-10-23T09:01:33;5.10;;;1.95;;
73859;SDS011;62197;51.632;13.700;2022-10-23T09:04:02;6.95;;;1.92;;
73859;SDS011;62197;51.632;13.700;2022-10-23T09:06:37;4.65;;;1.83;;
73859;SDS011;62197;51.632;13.700;2022-10-23T09:09:16;2.38;;;1.40;;
73859;SDS011;62197;51.632;13.700;2022-10-23T09:11:58;3.67;;;1.20;;
73859;SDS011;62197;51.632;13.700;2022-10-23T09:17:15;3.88;;;1.17;;
73859;SDS011;62197;51.632;13.700;2022-10-23T09:19:49;2.75;;;1.35;;
73859;SDS011;62197;51.632;13.700;2022-10-23T09:22:20;3.92;;;1.27;;
73859;SDS011;62197;51.632;13.700;2022-10-23T09:24:45;6.00;;;1.50;;
73859;SDS011;62197;51.632;13.700;2022-10-23T09:27:14;1.77;;;0.98;;
73859;SDS011;62197;51.632;13.700;2022-10-23T09:29:51;4.13;;;1.52;;
73859;SDS011;62197;51.632;13.700;2022-10-23T09:32:18;4.82;;;1.25;;
73859;SDS011;62197;51.632;13.700;2022-10-23T09:34:52;2.85;;;1.27;;
73859;SDS011;62197;51.632;13.700;2022-10-23T09:37:26;2.97;;;0.95;;
73859;SDS011;62197;51.632;13.700;2022-10-23T09:40:14;4.95;;;1.10;;
73859;SDS011;62197;51.632;13.700;2022-10-23T09:42:59;4.68;;;1.08;;
73859;SDS011;62197;51.632;13.700;2022-10-23T09:45:37;4.85;;;1.58;;
73859;SDS011;62197;51.632;13.700;2022-10-23T09:48:12;4.20;;;1.20;;
73859;SDS011;62197;51.632;13.700;2022-10-23T09:50:50;2.58;;;1.50;;
73859;SDS011;62197;51.632;13.700;2022-10-23T09:53:37;4.85;;;1.40;;
73859;SDS011;62197;51.632;13.700;2022-10-23T09:58:55;2.30;;;1.50;;
73859;SDS011;62197;51.632;13.700;2022-10-23T10:01:28;6.13;;;1.40;;
73859;SDS011;62197;51.632;13.700;2022-10-23T10:03:56;2.70;;;1.38;;
73859;SDS011;62197;51.632;13.700;2022-10-23T10:06:26;2.40;;;1.05;;
73859;SDS011;62197;51.632;13.700;2022-10-23T10:08:55;3.58;;;1.40;;
73859;SDS011;62197;51.632;13.700;2022-10-23T10:16:49;3.70;;;1.23;;
73859;SDS011;62197;51.632;13.700;2022-10-23T10:24:51;4.00;;;1.67;;
73859;SDS011;62197;51.632;13.700;2022-10-23T10:27:31;3.35;;;1.45;;
73859;SDS011;62197;51.632;13.700;2022-10-23T10:32:44;4.70;;;1.50;;
73859;SDS011;62197;51.632;13.700;2022-10-23T10:44:06;3.45;;;1.20;;
73859;SDS011;62197;51.632;13.700;2022-10-23T10:49:45;4.38;;;1.30;;
73859;SDS011;62197;51.632;13.700;2022-10-23T10:58:01;2.83;;;1.77;;
73859;SDS011;62197;51.632;13.700;2022-10-23T11:00:34;2.10;;;1.27;;
73859;SDS011;62197;51.632;13.700;2022-10-23T11:06:03;2.65;;;1.70;;
73859;SDS011;62197;51.632;13.700;2022-10-23T11:08:35;3.78;;;1.88;;
73859;SDS011;62197;51.632;13.700;2022-10-23T11:11:04;10.02;;;2.20;;
73859;SDS011;62197;51.632;13.700;2022-10-23T11:13:36;7.68;;;1.95;;
73859;SDS011;62197;51.632;13.700;2022-10-23T11:16:11;3.58;;;2.00;;
73859;SDS011;62197;51.632;13.700;2022-10-23T11:21:35;5.88;;;2.03;;
73859;SDS011;62197;51.632;13.700;2022-10-23T11:27:11;3.92;;;1.77;;
73859;SDS011;62197;51.632;13.700;2022-10-23T11:37:40;2.63;;;1.38;;
73859;SDS011;62197;51.632;13.700;2022-10-23T11:42:32;3.88;;;1.70;;
73859;SDS011;62197;51.632;13.700;2022-10-23T11:45:25;5.32;;;1.73;;
73859;SDS011;62197;51.632;13.700;2022-10-23T11:47:57;2.85;;;1.50;;
73859;SDS011;62197;51.632;13.700;2022-10-23T11:50:26;2.30;;;1.13;;
73859;SDS011;62197;51.632;13.700;2022-10-23T11:52:58;3.00;;;1.48;;
73859;SDS011;62197;51.632;13.700;2022-10-23T11:55:28;2.13;;;1.45;;
73859;SDS011;62197;51.632;13.700;2022-10-23T12:00:30;3.55;;;1.70;;
73859;SDS011;62197;51.632;13.700;2022-10-23T12:02:58;3.58;;;1.63;;
73859;SDS011;62197;51.632;13.700;2022-10-23T12:07:58;4.20;;;1.40;;
73859;SDS011;62197;51.632;13.700;2022-10-23T12:10:29;2.97;;;1.55;;
73859;SDS011;62197;51.632;13.700;2022-10-23T12:13:00;2.15;;;1.40;;
73859;SDS011;62197;51.632;13.700;2022-10-23T12:15:28;2.65;;;1.42;;
73859;SDS011;62197;51.632;13.700;2022-10-23T12:17:55;2.95;;;1.20;;
73859;SDS011;62197;51.632;13.700;2022-10-23T12:28:58;2.00;;;1.10;;
73859;SDS011;62197;51.632;13.700;2022-10-23T12:34:38;4.72;;;2.17;;
73859;SDS011;62197;51.632;13.700;2022-10-23T12:42:20;3.78;;;1.63;;
73859;SDS011;62197;51.632;13.700;2022-10-23T12:44:56;3.70;;;1.17;;
73859;SDS011;62197;51.632;13.700;2022-10-23T12:47:26;5.05;;;1.20;;
73859;SDS011;62197;51.632;13.700;2022-10-23T12:49:53;2.72;;;1.20;;
73859;SDS011;62197;51.632;13.700;2022-10-23T12:52:18;2.20;;;1.05;;
73859;SDS011;62197;51.632;13.700;2022-10-23T12:54:45;6.22;;;1.20;;
73859;SDS011;62197;51.632;13.700;2022-10-23T12:59:50;2.40;;;1.08;;
73859;SDS011;62197;51.632;13.700;2022-10-23T13:02:20;2.15;;;1.42;;
73859;SDS011;62197;51.632;13.700;2022-10-23T13:04:54;2.65;;;1.20;;
73859;SDS011;62197;51.632;13.700;2022-10-23T13:07:28;2.58;;;1.02;;
73859;SDS011;62197;51.632;13.700;2022-10-23T13:09:55;2.95;;;1.27;;
73859;SDS011;62197;51.632;13.700;2022-10-23T13:12:29;4.03;;;1.67;;
73859;SDS011;62197;51.632;13.700;2022-10-23T13:17:37;1.88;;;0.95;;
73859;SDS011;62197;51.632;13.700;2022-10-23T13:22:42;3.10;;;1.30;;
73859;SDS011;62197;51.632;13.700;2022-10-23T13:30:43;2.63;;;1.50;;
73859;SDS011;62197;51.632;13.700;2022-10-23T13:33:12;2.88;;;1.50;;
73859;SDS011;62197;51.632;13.700;2022-10-23T13:35:39;4.10;;;1.95;;
73859;SDS011;62197;51.632;13.700;2022-10-23T13:38:08;3.92;;;1.52;;
73859;SDS011;62197;51.632;13.700;2022-10-23T13:40:34;2.95;;;1.88;;
73859;SDS011;62197;51.632;13.700;2022-10-23T13:42:59;4.60;;;1.85;;
73859;SDS011;62197;51.632;13.700;2022-10-23T13:45:25;4.68;;;1.80;;
73859;SDS011;62197;51.632;13.700;2022-10-23T13:47:51;4.93;;;2.40;;
73859;SDS011;62197;51.632;13.700;2022-10-23T13:50:17;3.10;;;1.88;;
73859;SDS011;62197;51.632;13.700;2022-10-23T13:52:43;3.90;;;1.52;;
73859;SDS011;62197;51.632;13.700;2022-10-23T13:55:11;6.28;;;2.00;;
73859;SDS011;62197;51.632;13.700;2022-10-23T13:57:43;3.90;;;1.77;;
73859;SDS011;62197;51.632;13.700;2022-10-23T14:00:09;3.72;;;2.03;;
73859;SDS011;62197;51.632;13.700;2022-10-23T14:02:35;5.72;;;2.55;;
73859;SDS011;62197;51.632;13.700;2022-10-23T14:05:00;3.13;;;2.00;;
73859;SDS011;62197;51.632;13.700;2022-10-23T14:07:25;3.78;;;1.85;;
73859;SDS011;62197;51.632;13.700;2022-10-23T14:09:51;4.10;;;1.65;;
73859;SDS011;62197;51.632;13.700;2022-10-23T14:12:16;3.60;;;2.28;;
73859;SDS011;62197;51.632;13.700;2022-10-23T14:14:41;4.43;;;2.00;;
73859;SDS011;62197;51.632;13.700;2022-10-23T14:17:07;3.80;;;2.05;;
73859;SDS011;62197;51.632;13.700;2022-10-23T14:19:32;2.88;;;1.77;;
73859;SDS011;62197;51.632;13.700;2022-10-23T14:21:58;5.22;;;2.50;;
73859;SDS011;62197;51.632;13.700;2022-10-23T14:24:23;3.67;;;2.15;;
73859;SDS011;62197;51.632;13.700;2022-10-23T14:26:49;4.43;;;2.28;;
73859;SDS011;62197;51.632;13.700;2022-10-23T14:29:14;4.20;;;2.33;;
73859;SDS011;62197;51.632;13.700;2022-10-23T14:31:39;2.63;;;2.05;;
73859;SDS011;62197;51.632;13.700;2022-10-23T14:34:05;3.95;;;2.17;;
73859;SDS011;62197;51.632;13.700;2022-10-23T14:36:30;5.35;;;2.60;;
73859;SDS011;62197;51.632;13.700;2022-10-23T14:38:56;4.63;;;2.65;;
73859;SDS011;62197;51.632;13.700;2022-10-23T14:41:22;5.32;;;2.40;;
73859;SDS011;62197;51.632;13.700;2022-10-23T14:43:49;5.95;;;2.22;;
73859;SDS011;62197;51.632;13.700;2022-10-23T14:46:15;4.75;;;2.55;;
73859;SDS011;62197;51.632;13.700;2022-10-23T14:48:44;6.28;;;2.90;;
73859;SDS011;62197;51.632;13.700;2022-10-23T14:51:25;7.00;;;2.78;;
73859;SDS011;62197;51.632;13.700;2022-10-23T14:54:03;5.45;;;2.40;;
73859;SDS011;62197;51.632;13.700;2022-10-23T14:56:31;4.20;;;2.35;;
73859;SDS011;62197;51.632;13.700;2022-10-23T14:58:59;4.55;;;2.30;;
73859;SDS011;62197;51.632;13.700;2022-10-23T15:01:28;4.80;;;2.83;;
73859;SDS011;62197;51.632;13.700;2022-10-23T15:03:54;5.75;;;3.33;;
73859;SDS011;62197;51.632;13.700;2022-10-23T15:06:20;7.65;;;2.75;;
73859;SDS011;62197;51.632;13.700;2022-10-23T15:08:48;4.13;;;2.60;;
73859;SDS011;62197;51.632;13.700;2022-10-23T15:11:15;5.78;;;2.25;;
73859;SDS011;62197;51.632;13.700;2022-10-23T15:13:40;6.05;;;2.60;;
73859;SDS011;62197;51.632;13.700;2022-10-23T15:16:06;12.10;;;5.10;;
73859;SDS011;62197;51.632;13.700;2022-10-23T15:18:34;6.32;;;2.75;;
73859;SDS011;62197;51.632;13.700;2022-10-23T15:21:00;5.53;;;2.63;;
73859;SDS011;62197;51.632;13.700;2022-10-23T15:23:26;8.77;;;2.75;;
73859;SDS011;62197;51.632;13.700;2022-10-23T15:25:57;4.15;;;2.15;;
73859;SDS011;62197;51.632;13.700;2022-10-23T15:28:24;4.80;;;2.38;;
73859;SDS011;62197;51.632;13.700;2022-10-23T15:30:50;4.30;;;1.90;;
73859;SDS011;62197;51.632;13.700;2022-10-23T15:33:16;4.75;;;2.60;;
73859;SDS011;62197;51.632;13.700;2022-10-23T15:35:42;4.10;;;2.10;;
73859;SDS011;62197;51.632;13.700;2022-10-23T15:38:07;3.72;;;2.08;;
73859;SDS011;62197;51.632;13.700;2022-10-23T15:40:32;3.95;;;2.13;;
73859;SDS011;62197;51.632;13.700;2022-10-23T15:42:58;7.75;;;2.38;;
73859;SDS011;62197;51.632;13.700;2022-10-23T15:45:23;4.15;;;2.00;;
73859;SDS011;62197;51.632;13.700;2022-10-23T15:47:48;7.55;;;2.33;;
73859;SDS011;62197;51.632;13.700;2022-10-23T15:50:14;6.13;;;2.50;;
73859;SDS011;62197;51.632;13.700;2022-10-23T15:52:40;4.07;;;2.42;;
73859;SDS011;62197;51.632;13.700;2022-10-23T15:55:06;5.05;;;2.65;;
73859;SDS011;62197;51.632;13.700;2022-10-23T15:57:35;6.18;;;3.05;;
73859;SDS011;62197;51.632;13.700;2022-10-23T16:00:01;7.97;;;3.30;;
73859;SDS011;62197;51.632;13.700;2022-10-23T16:02:27;4.57;;;3.00;;
73859;SDS011;62197;51.632;13.700;2022-10-23T16:04:53;6.30;;;3.50;;
73859;SDS011;62197;51.632;13.700;2022-10-23T16:07:18;5.03;;;3.10;;
73859;SDS011;62197;51.632;13.700;2022-10-23T16:09:43;4.90;;;3.28;;
73859;SDS011;62197;51.632;13.700;2022-10-23T16:12:09;6.10;;;3.10;;
73859;SDS011;62197;51.632;13.700;2022-10-23T16:14:34;5.53;;;3.05;;
73859;SDS011;62197;51.632;13.700;2022-10-23T16:16:59;6.22;;;3.20;;
73859;SDS011;62197;51.632;13.700;2022-10-23T16:19:25;6.32;;;3.25;;
73859;SDS011;62197;51.632;13.700;2022-10-23T16:21:50;5.90;;;3.50;;
73859;SDS011;62197;51.632;13.700;2022-10-23T16:24:15;6.10;;;3.70;;
73859;SDS011;62197;51.632;13.700;2022-10-23T16:26:41;6.18;;;3.85;;
73859;SDS011;62197;51.632;13.700;2022-10-23T16:29:07;6.22;;;3.85;;
73859;SDS011;62197;51.632;13.700;2022-10-23T16:31:33;7.00;;;3.90;;
73859;SDS011;62197;51.632;13.700;2022-10-23T16:33:59;6.43;;;3.40;;
73859;SDS011;62197;51.632;13.700;2022-10-23T16:36:26;15.13;;;5.38;;
73859;SDS011;62197;51.632;13.700;2022-10-23T16:38:52;6.60;;;3.60;;
73859;SDS011;62197;51.632;13.700;2022-10-23T16:41:18;6.75;;;4.05;;
73859;SDS011;62197;51.632;13.700;2022-10-23T16:43:43;7.63;;;3.47;;
73859;SDS011;62197;51.632;13.700;2022-10-23T16:46:18;5.47;;;3.53;;
73859;SDS011;62197;51.632;13.700;2022-10-23T16:48:44;6.63;;;3.72;;
73859;SDS011;62197;51.632;13.700;2022-10-23T16:51:11;7.07;;;4.25;;
73859;SDS011;62197;51.632;13.700;2022-10-23T16:53:38;6.80;;;4.00;;
73859;SDS011;62197;51.632;13.700;2022-10-23T16:56:04;7.63;;;4.32;;
73859;SDS011;62197;51.632;13.700;2022-10-23T16:58:31;11.95;;;4.50;;
73859;SDS011;62197;51.632;13.700;2022-10-23T17:00:58;7.47;;;5.03;;
73859;SDS011;62197;51.632;13.700;2022-10-23T17:03:29;10.57;;;5.88;;
73859;SDS011;62197;51.632;13.700;2022-10-23T17:05:59;7.68;;;4.95;;
73859;SDS011;62197;51.632;13.700;2022-10-23T17:08:25;8.02;;;4.82;;
73859;SDS011;62197;51.632;13.700;2022-10-23T17:11:01;6.90;;;4.65;;
73859;SDS011;62197;51.632;13.700;2022-10-23T17:13:31;8.15;;;4.53;;
73859;SDS011;62197;51.632;13.700;2022-10-23T17:16:04;6.40;;;4.75;;
73859;SDS011;62197;51.632;13.700;2022-10-23T17:18:31;8.13;;;5.55;;
73859;SDS011;62197;51.632;13.700;2022-10-23T17:20:57;8.50;;;4.07;;
73859;SDS011;62197;51.632;13.700;2022-10-23T17:23:23;7.78;;;4.45;;
73859;SDS011;62197;51.632;13.700;2022-10-23T17:25:49;8.52;;;4.57;;
73859;SDS011;62197;51.632;13.700;2022-10-23T17:28:14;6.20;;;4.30;;
73859;SDS011;62197;51.632;13.700;2022-10-23T17:30:39;6.40;;;4.18;;
73859;SDS011;62197;51.632;13.700;2022-10-23T17:33:05;5.30;;;3.97;;
73859;SDS011;62197;51.632;13.700;2022-10-23T17:35:30;11.73;;;4.70;;
73859;SDS011;62197;51.632;13.700;2022-10-23T17:37:55;7.82;;;4.45;;
73859;SDS011;62197;51.632;13.700;2022-10-23T17:40:21;8.38;;;4.53;;
73859;SDS011;62197;51.632;13.700;2022-10-23T17:42:46;6.35;;;4.10;;
73859;SDS011;62197;51.632;13.700;2022-10-23T17:45:11;7.50;;;3.65;;
73859;SDS011;62197;51.632;13.700;2022-10-23T17:47:37;8.23;;;4.60;;
73859;SDS011;62197;51.632;13.700;2022-10-23T17:50:05;6.78;;;4.20;;
73859;SDS011;62197;51.632;13.700;2022-10-23T17:52:33;9.82;;;4.40;;
73859;SDS011;62197;51.632;13.700;2022-10-23T17:54:59;6.68;;;4.05;;
73859;SDS011;62197;51.632;13.700;2022-10-23T17:57:24;7.28;;;4.65;;
73859;SDS011;62197;51.632;13.700;2022-10-23T17:59:50;9.82;;;4.80;;
73859;SDS011;62197;51.632;13.700;2022-10-23T18:02:15;7.88;;;4.63;;
73859;SDS011;62197;51.632;13.700;2022-10-23T18:04:40;8.00;;;4.70;;
73859;SDS011;62197;51.632;13.700;2022-10-23T18:07:06;11.13;;;5.28;;
73859;SDS011;62197;51.632;13.700;2022-10-23T18:09:31;8.63;;;4.90;;
73859;SDS011;62197;51.632;13.700;2022-10-23T18:11:56;9.68;;;4.53;;
73859;SDS011;62197;51.632;13.700;2022-10-23T18:14:22;8.23;;;5.38;;
73859;SDS011;62197;51.632;13.700;2022-10-23T18:16:48;7.90;;;5.07;;
73859;SDS011;62197;51.632;13.700;2022-10-23T18:19:14;10.10;;;4.90;;
73859;SDS011;62197;51.632;13.700;2022-10-23T18:21:42;10.85;;;5.50;;
73859;SDS011;62197;51.632;13.700;2022-10-23T18:24:07;7.93;;;5.18;;
73859;SDS011;62197;51.632;13.700;2022-10-23T18:26:33;11.68;;;6.28;;
73859;SDS011;62197;51.632;13.700;2022-10-23T18:28:59;10.48;;;5.63;;
73859;SDS011;62197;51.632;13.700;2022-10-23T18:31:26;9.63;;;4.80;;
73859;SDS011;62197;51.632;13.700;2022-10-23T18:33:55;10.57;;;5.60;;
73859;SDS011;62197;51.632;13.700;2022-10-23T18:36:22;10.48;;;5.22;;
73859;SDS011;62197;51.632;13.700;2022-10-23T18:38:50;8.45;;;5.65;;
73859;SDS011;62197;51.632;13.700;2022-10-23T18:41:16;9.40;;;5.68;;
73859;SDS011;62197;51.632;13.700;2022-10-23T18:43:43;8.68;;;5.40;;
73859;SDS011;62197;51.632;13.700;2022-10-23T18:46:09;7.65;;;5.45;;
73859;SDS011;62197;51.632;13.700;2022-10-23T18:48:35;8.63;;;5.50;;